Pagrindinis puslapis
METAR-TAF:

METAR-TAF

Oro uostai :

Leconfield, Anglija

platuma: 53-52-37N, ilguma: 0-26-15W, Aukštis: 7 m

Dabartinis oras

Ataskaita buvo paskelbta 47 minutes, ne 19:50 UTC
Vėjas 5 kt iš Vakarų
Temperatūra 0°C
Drėgmė 86%
Slėgis 995 hPa
Matomumas 10 km arba daugiau

METAR: EGXV 231950Z AUTO 27005KT 9999 NCD M00/M02 Q0995

Laikas: 20:37 (20:37 UTC)


TAF: trūkstamas

Orai ataskaitas ir orų prognozės (METAR, TAF).

turimą stotys yra geltonos ir raudonos taškus žemėlapyje.

Perkelti pele per norėdami pamatyti stoties vardą.

Tada spustelėkite, norėdami matyti oro stebėjimo ir prognozės.

Norėdami pakeisti žemėlapį: spustelėkite ant žalios mygtukų su juodo kryžiaus žemyn,; žalią mygtuką su brūkšneliu, jei norite nutolinti; arba žalių rodyklių gretimoms žemėlapius.


METAR-TAF: